createdAt,value
2022-11-10T00:01:09.062Z,2.42
2022-11-10T00:03:37.832Z,2.78
2022-11-10T00:06:08.621Z,2.88
2022-11-10T00:08:36.273Z,3.60
2022-11-10T00:11:09.589Z,3.20
2022-11-10T00:13:56.618Z,3.42
2022-11-10T00:16:42.347Z,2.90
2022-11-10T00:19:09.038Z,2.70
2022-11-10T00:21:37.192Z,2.53
2022-11-10T00:26:30.888Z,3.42
2022-11-10T00:28:57.491Z,3.35
2022-11-10T00:31:24.984Z,2.72
2022-11-10T00:33:52.617Z,3.08
2022-11-10T00:36:19.142Z,3.30
2022-11-10T00:38:46.369Z,2.63
2022-11-10T00:41:13.109Z,2.67
2022-11-10T00:43:41.118Z,2.85
2022-11-10T00:46:07.708Z,3.08
2022-11-10T00:48:37.531Z,3.08
2022-11-10T00:51:04.262Z,3.05
2022-11-10T00:53:31.156Z,2.78
2022-11-10T00:55:57.774Z,2.88
2022-11-10T00:58:24.677Z,3.30
2022-11-10T01:00:51.684Z,3.08
2022-11-10T01:03:18.900Z,3.50
2022-11-10T01:05:46.061Z,3.05
2022-11-10T01:08:15.084Z,3.22
2022-11-10T01:10:41.609Z,2.90
2022-11-10T01:13:08.785Z,2.97
2022-11-10T01:15:39.117Z,3.40
2022-11-10T01:18:06.172Z,3.20
2022-11-10T01:20:36.149Z,3.22
2022-11-10T01:23:02.797Z,3.47
2022-11-10T01:25:29.375Z,3.22
2022-11-10T01:27:56.605Z,3.28
2022-11-10T01:30:24.261Z,2.90
2022-11-10T01:32:51.049Z,3.85
2022-11-10T01:35:18.114Z,3.63
2022-11-10T01:37:45.501Z,3.10
2022-11-10T01:40:14.955Z,3.00
2022-11-10T01:42:49.591Z,3.80
2022-11-10T01:45:25.579Z,3.20
2022-11-10T01:47:56.495Z,3.47
2022-11-10T01:50:26.160Z,3.13
2022-11-10T01:52:57.109Z,4.47
2022-11-10T01:55:25.035Z,3.33
2022-11-10T01:57:52.327Z,3.92
2022-11-10T02:00:19.784Z,3.63
2022-11-10T02:02:52.812Z,3.80
2022-11-10T02:05:21.862Z,3.55
2022-11-10T02:07:51.063Z,2.58
2022-11-10T02:10:20.005Z,3.38
2022-11-10T02:12:48.635Z,3.60
2022-11-10T02:15:18.285Z,3.70
2022-11-10T02:17:48.053Z,4.10
2022-11-10T02:20:19.655Z,3.85
2022-11-10T02:22:49.336Z,4.00
2022-11-10T02:25:21.601Z,2.95
2022-11-10T02:27:49.615Z,3.88
2022-11-10T02:30:16.730Z,3.83
2022-11-10T02:32:43.719Z,3.70
2022-11-10T02:35:10.608Z,3.90
2022-11-10T02:37:39.965Z,3.72
2022-11-10T02:40:07.591Z,4.40
2022-11-10T02:42:34.411Z,3.55
2022-11-10T02:45:01.277Z,3.72
2022-11-10T02:47:28.063Z,3.45
2022-11-10T02:49:55.309Z,3.67
2022-11-10T02:52:21.940Z,3.97
2022-11-10T02:54:48.754Z,4.65
2022-11-10T02:57:15.970Z,4.10
2022-11-10T02:59:42.610Z,3.78
2022-11-10T03:02:09.179Z,3.67
2022-11-10T03:04:35.962Z,3.60
2022-11-10T03:07:02.649Z,4.13
2022-11-10T03:09:29.263Z,4.15
2022-11-10T03:11:56.097Z,3.88
2022-11-10T03:14:22.735Z,4.15
2022-11-10T03:16:49.790Z,4.22
2022-11-10T03:19:17.035Z,3.75
2022-11-10T03:21:43.628Z,3.97
2022-11-10T03:24:10.477Z,4.00
2022-11-10T03:26:37.074Z,4.00
2022-11-10T03:29:04.244Z,3.97
2022-11-10T03:31:31.448Z,4.03
2022-11-10T03:34:00.177Z,3.58
2022-11-10T03:36:27.036Z,3.92
2022-11-10T03:38:53.895Z,3.70
2022-11-10T03:41:20.961Z,4.20
2022-11-10T03:43:48.777Z,3.72
2022-11-10T03:46:19.433Z,3.65
2022-11-10T03:48:53.436Z,4.22
2022-11-10T03:51:21.618Z,4.22
2022-11-10T03:53:48.128Z,4.32
2022-11-10T03:56:14.752Z,3.63
2022-11-10T03:58:41.693Z,3.70
2022-11-10T04:01:09.260Z,3.90
2022-11-10T04:03:35.875Z,4.38
2022-11-10T04:06:23.710Z,3.33
2022-11-10T04:09:04.344Z,3.25
2022-11-10T04:11:50.512Z,4.25
2022-11-10T04:14:36.279Z,4.00
2022-11-10T04:17:03.889Z,3.50
2022-11-10T04:19:30.781Z,3.47
2022-11-10T04:21:57.486Z,3.75
2022-11-10T04:24:24.871Z,3.05
2022-11-10T04:26:52.042Z,3.47
2022-11-10T04:29:20.258Z,3.92
2022-11-10T04:34:20.189Z,3.60
2022-11-10T04:36:47.345Z,3.55
2022-11-10T04:39:14.227Z,3.38
2022-11-10T04:41:40.904Z,3.88
2022-11-10T04:44:07.979Z,3.92
2022-11-10T04:46:39.829Z,4.00
2022-11-10T04:49:08.310Z,3.28
2022-11-10T04:51:37.420Z,3.50
2022-11-10T04:54:06.597Z,4.05
2022-11-10T04:56:34.759Z,4.00
2022-11-10T04:59:01.825Z,4.18
2022-11-10T05:01:29.291Z,4.30
2022-11-10T05:03:56.276Z,3.75
2022-11-10T05:06:24.193Z,3.65
2022-11-10T05:08:51.451Z,3.42
2022-11-10T05:11:18.656Z,4.00
2022-11-10T05:13:45.836Z,3.83
2022-11-10T05:16:14.331Z,3.70
2022-11-10T05:18:42.044Z,4.18
2022-11-10T05:21:09.289Z,3.90
2022-11-10T05:23:40.429Z,3.38
2022-11-10T05:26:15.302Z,3.50
2022-11-10T05:28:44.595Z,4.28
2022-11-10T05:31:12.932Z,3.83
2022-11-10T05:36:07.541Z,3.80
2022-11-10T05:38:42.998Z,3.90
2022-11-10T05:41:10.310Z,3.40
2022-11-10T05:43:37.348Z,3.92
2022-11-10T05:46:04.486Z,4.13
2022-11-10T05:48:37.102Z,3.67
2022-11-10T05:51:03.904Z,4.40
2022-11-10T05:53:33.284Z,3.55
2022-11-10T05:55:59.992Z,3.58
2022-11-10T05:58:29.030Z,3.65
2022-11-10T06:01:00.863Z,3.75
2022-11-10T06:03:28.693Z,3.63
2022-11-10T06:05:58.005Z,3.15
2022-11-10T06:08:24.797Z,3.90
2022-11-10T06:10:52.085Z,3.45
2022-11-10T06:13:19.579Z,4.07
2022-11-10T06:15:50.406Z,3.78
2022-11-10T06:18:18.157Z,3.95
2022-11-10T06:20:46.903Z,3.27
2022-11-10T06:23:14.252Z,3.70
2022-11-10T06:25:42.179Z,3.13
2022-11-10T06:28:09.483Z,3.30
2022-11-10T06:30:37.799Z,3.13
2022-11-10T06:33:05.070Z,3.50
2022-11-10T06:35:31.705Z,3.88
2022-11-10T06:38:03.025Z,4.35
2022-11-10T06:40:30.833Z,4.05
2022-11-10T06:42:58.005Z,3.20
2022-11-10T06:45:25.751Z,3.63
2022-11-10T06:48:13.871Z,3.28
2022-11-10T06:50:40.456Z,2.78
2022-11-10T06:53:07.542Z,2.92
2022-11-10T06:55:34.492Z,3.35
2022-11-10T06:58:01.562Z,2.95
2022-11-10T07:00:29.448Z,3.50
2022-11-10T07:03:04.509Z,3.28
2022-11-10T07:05:35.535Z,3.03
2022-11-10T07:08:07.766Z,3.05
2022-11-10T07:10:35.275Z,3.75
2022-11-10T07:13:03.640Z,3.60
2022-11-10T07:15:30.856Z,3.05
2022-11-10T07:17:58.310Z,2.97
2022-11-10T07:20:26.139Z,3.63
2022-11-10T07:22:58.717Z,2.80
2022-11-10T07:25:26.084Z,3.20
2022-11-10T07:27:57.788Z,2.90
2022-11-10T07:30:24.921Z,2.53
2022-11-10T07:33:18.639Z,2.50
2022-11-10T07:35:55.672Z,3.53
2022-11-10T07:38:22.578Z,2.70
2022-11-10T07:40:54.022Z,2.78
2022-11-10T07:43:22.333Z,3.10
2022-11-10T07:45:53.306Z,3.00
2022-11-10T07:48:20.529Z,2.53
2022-11-10T07:50:47.387Z,3.17
2022-11-10T07:53:16.655Z,2.63
2022-11-10T07:55:44.840Z,3.15
2022-11-10T08:00:40.367Z,3.30
2022-11-10T08:03:12.081Z,2.83
2022-11-10T08:05:39.866Z,3.28
2022-11-10T08:08:07.704Z,2.95
2022-11-10T08:10:36.061Z,3.05
2022-11-10T08:13:05.966Z,2.90
2022-11-10T08:15:34.352Z,2.95
2022-11-10T08:18:03.877Z,2.80
2022-11-10T08:20:31.576Z,2.83
2022-11-10T08:23:06.295Z,3.55
2022-11-10T08:25:37.436Z,3.20
2022-11-10T08:28:08.647Z,2.28
2022-11-10T08:30:37.131Z,3.05
2022-11-10T08:33:05.768Z,3.17
2022-11-10T08:35:36.648Z,3.13
2022-11-10T08:38:24.323Z,2.60
2022-11-10T08:43:18.600Z,3.22
2022-11-10T08:45:45.840Z,2.60
2022-11-10T08:48:13.951Z,2.72
2022-11-10T08:50:41.397Z,2.70
2022-11-10T08:53:12.233Z,3.05
2022-11-10T08:55:39.749Z,3.20
2022-11-10T08:58:08.591Z,3.25
2022-11-10T09:00:35.299Z,3.22
2022-11-10T09:03:31.726Z,2.83
2022-11-10T09:05:59.057Z,2.95
2022-11-10T09:08:26.690Z,2.83
2022-11-10T09:10:53.329Z,2.28
2022-11-10T09:13:29.492Z,2.97
2022-11-10T09:16:00.853Z,3.88
2022-11-10T09:18:27.778Z,3.42
2022-11-10T09:20:54.527Z,2.50
2022-11-10T09:23:25.064Z,3.28
2022-11-10T09:25:55.793Z,2.97
2022-11-10T09:28:23.798Z,3.00
2022-11-10T09:30:51.946Z,2.35
2022-11-10T09:33:19.195Z,2.72
2022-11-10T09:35:46.116Z,2.85
2022-11-10T09:38:13.168Z,2.83
2022-11-10T09:40:58.026Z,2.80
2022-11-10T09:43:38.141Z,2.88
2022-11-10T09:46:16.248Z,3.28
2022-11-10T09:49:01.624Z,3.28
2022-11-10T09:51:34.368Z,2.67
2022-11-10T09:54:06.145Z,2.47
2022-11-10T09:56:35.601Z,2.90
2022-11-10T09:59:16.045Z,2.30
2022-11-10T10:01:49.642Z,2.95
2022-11-10T10:04:53.711Z,2.95
2022-11-10T10:07:35.914Z,2.67
2022-11-10T10:10:21.041Z,2.80
2022-11-10T10:13:23.242Z,2.60
2022-11-10T10:16:16.431Z,2.20
2022-11-10T10:18:58.707Z,2.83
2022-11-10T10:22:01.989Z,2.75
2022-11-10T10:24:30.293Z,2.67
2022-11-10T10:27:03.944Z,2.17
2022-11-10T10:29:40.664Z,2.35
2022-11-10T10:32:13.740Z,2.83
2022-11-10T10:34:42.965Z,2.70
2022-11-10T10:37:23.001Z,3.13
2022-11-10T10:39:55.277Z,2.38
2022-11-10T10:42:33.582Z,2.80
2022-11-10T10:45:42.605Z,2.85
2022-11-10T10:48:26.227Z,2.67
2022-11-10T10:50:53.083Z,2.47
2022-11-10T10:53:25.203Z,2.95
2022-11-10T10:56:29.240Z,3.05
2022-11-10T10:58:58.377Z,2.38
2022-11-10T11:01:33.527Z,2.40
2022-11-10T11:04:05.188Z,2.95
2022-11-10T11:06:34.686Z,2.50
2022-11-10T11:09:09.297Z,2.50
2022-11-10T11:11:39.523Z,3.25
2022-11-10T11:14:18.770Z,2.72
2022-11-10T11:17:00.685Z,2.17
2022-11-10T11:19:35.956Z,2.88
2022-11-10T11:22:41.142Z,2.70
2022-11-10T11:25:32.320Z,2.90
2022-11-10T11:28:18.878Z,2.92
2022-11-10T11:31:15.745Z,3.20
2022-11-10T11:34:13.009Z,2.97
2022-11-10T11:39:43.870Z,2.40
2022-11-10T11:42:34.318Z,2.22
2022-11-10T11:45:33.093Z,2.28
2022-11-10T11:48:23.601Z,3.17
2022-11-10T11:51:05.396Z,3.53
2022-11-10T11:53:39.611Z,2.70
2022-11-10T11:56:11.403Z,2.40
2022-11-10T11:58:59.147Z,2.78
2022-11-10T12:01:34.706Z,3.20
2022-11-10T12:04:34.941Z,3.33
2022-11-10T12:07:36.109Z,3.17
2022-11-10T12:10:02.619Z,2.63
2022-11-10T12:12:49.594Z,2.65
2022-11-10T12:15:40.997Z,2.53
2022-11-10T12:18:10.897Z,2.78
2022-11-10T12:20:48.582Z,2.72
2022-11-10T12:26:01.459Z,2.50
2022-11-10T12:29:06.522Z,3.50
2022-11-10T12:31:36.609Z,3.03
2022-11-10T12:34:20.158Z,2.97
2022-11-10T12:36:47.639Z,2.75
2022-11-10T12:39:23.823Z,2.78
2022-11-10T12:41:56.482Z,2.92
2022-11-10T12:44:31.587Z,3.53
2022-11-10T12:47:02.897Z,2.88
2022-11-10T12:49:35.840Z,2.78
2022-11-10T12:52:23.940Z,2.95
2022-11-10T12:54:50.645Z,3.13
2022-11-10T12:57:25.506Z,2.88
2022-11-10T13:00:00.487Z,2.63
2022-11-10T13:02:40.782Z,2.00
2022-11-10T13:05:23.689Z,2.55
2022-11-10T13:07:51.772Z,2.80
2022-11-10T13:10:19.192Z,2.60
2022-11-10T13:13:05.118Z,2.63
2022-11-10T13:15:46.251Z,2.83
2022-11-10T13:18:24.880Z,1.98
2022-11-10T13:20:54.940Z,2.35
2022-11-10T13:23:23.028Z,2.53
2022-11-10T13:26:35.332Z,1.92
2022-11-10T13:29:32.262Z,2.28
2022-11-10T13:32:08.018Z,2.33
2022-11-10T13:34:36.742Z,2.47
2022-11-10T13:37:24.476Z,2.63
2022-11-10T13:39:51.977Z,1.98
2022-11-10T13:42:23.975Z,2.22
2022-11-10T13:44:52.614Z,2.00
2022-11-10T13:47:55.041Z,2.50
2022-11-10T13:50:34.239Z,2.63
2022-11-10T13:53:14.495Z,2.08
2022-11-10T13:56:24.947Z,2.35
2022-11-10T13:58:51.580Z,2.42
2022-11-10T14:01:18.486Z,1.80
2022-11-10T14:03:45.465Z,2.15
2022-11-10T14:06:22.595Z,2.30
2022-11-10T14:09:03.468Z,1.77
2022-11-10T14:11:43.683Z,1.88
2022-11-10T14:14:23.196Z,2.47
2022-11-10T14:16:50.739Z,2.63
2022-11-10T14:19:38.333Z,2.60
2022-11-10T14:24:59.886Z,2.00
2022-11-10T14:27:31.178Z,1.88
2022-11-10T14:30:21.830Z,1.73
2022-11-10T14:33:02.425Z,1.70
2022-11-10T14:35:31.853Z,2.03
2022-11-10T14:38:02.500Z,1.70
2022-11-10T14:40:30.481Z,2.20
2022-11-10T14:45:29.046Z,2.03
2022-11-10T14:48:00.114Z,2.40
2022-11-10T14:50:31.914Z,2.08
2022-11-10T14:53:03.692Z,1.65
2022-11-10T14:55:34.087Z,1.80
2022-11-10T14:58:05.675Z,1.92
2022-11-10T15:00:36.615Z,2.30
2022-11-10T15:03:05.941Z,1.90
2022-11-10T15:05:34.098Z,2.13
2022-11-10T15:08:03.152Z,1.98
2022-11-10T15:10:39.511Z,1.90
2022-11-10T15:13:19.674Z,2.05
2022-11-10T15:15:46.861Z,2.13
2022-11-10T15:18:28.652Z,1.83
2022-11-10T15:21:13.008Z,1.90
2022-11-10T15:23:41.591Z,1.95
2022-11-10T15:26:20.876Z,2.05
2022-11-10T15:28:47.687Z,2.00
2022-11-10T15:31:24.151Z,1.83
2022-11-10T15:33:55.135Z,1.92
2022-11-10T15:36:32.282Z,1.85
2022-11-10T15:39:15.684Z,2.45
2022-11-10T15:42:04.730Z,2.13
2022-11-10T15:44:31.260Z,1.77
2022-11-10T15:46:59.030Z,1.92
2022-11-10T15:49:25.493Z,2.00
2022-11-10T15:51:56.530Z,1.90
2022-11-10T15:54:26.607Z,1.90
2022-11-10T15:56:53.190Z,1.65
2022-11-10T15:59:19.843Z,1.25
2022-11-10T16:01:49.468Z,1.80
2022-11-10T16:04:16.853Z,1.83
2022-11-10T16:06:43.495Z,1.63
2022-11-10T16:09:12.182Z,1.90
2022-11-10T16:11:41.298Z,1.55
2022-11-10T16:14:15.339Z,2.17
2022-11-10T16:16:42.801Z,1.55
2022-11-10T16:19:11.144Z,1.67
2022-11-10T16:21:37.877Z,2.10
2022-11-10T16:24:05.145Z,1.67
2022-11-10T16:26:35.175Z,1.80
2022-11-10T16:29:02.235Z,2.05
2022-11-10T16:31:30.317Z,1.50
2022-11-10T16:33:57.331Z,2.08
2022-11-10T16:36:34.215Z,1.58
2022-11-10T16:39:12.101Z,1.67
2022-11-10T16:44:13.783Z,1.90
2022-11-10T16:46:42.530Z,1.40
2022-11-10T16:49:28.287Z,1.67
2022-11-10T16:51:55.414Z,1.58
2022-11-10T16:54:22.429Z,1.77
2022-11-10T16:56:49.169Z,1.75
2022-11-10T16:59:16.309Z,1.80
2022-11-10T17:01:46.386Z,1.63
2022-11-10T17:04:14.147Z,2.15
2022-11-10T17:06:41.540Z,1.85
2022-11-10T17:09:16.089Z,1.90
2022-11-10T17:11:45.014Z,2.10
2022-11-10T17:14:13.555Z,1.63
2022-11-10T17:16:43.490Z,2.08
2022-11-10T17:19:27.473Z,1.50
2022-11-10T17:21:54.462Z,1.88
2022-11-10T17:24:21.681Z,1.85
2022-11-10T17:26:48.684Z,2.27
2022-11-10T17:29:21.011Z,1.98
2022-11-10T17:31:50.544Z,1.80
2022-11-10T17:34:17.681Z,1.27
2022-11-10T17:36:46.435Z,1.92
2022-11-10T17:39:15.146Z,1.60
2022-11-10T17:41:41.771Z,1.88
2022-11-10T17:44:17.856Z,1.75
2022-11-10T17:46:45.269Z,1.83
2022-11-10T17:49:11.987Z,1.70
2022-11-10T17:51:40.576Z,1.58
2022-11-10T17:54:16.140Z,2.03
2022-11-10T17:56:43.112Z,1.77
2022-11-10T17:59:09.651Z,1.90
2022-11-10T18:01:37.055Z,2.10
2022-11-10T18:04:03.710Z,1.67
2022-11-10T18:06:31.877Z,2.33
2022-11-10T18:08:58.424Z,2.10
2022-11-10T18:11:25.241Z,2.17
2022-11-10T18:13:52.777Z,2.40
2022-11-10T18:16:19.615Z,1.45
2022-11-10T18:18:46.451Z,1.73
2022-11-10T18:21:13.836Z,1.63
2022-11-10T18:23:45.608Z,1.95
2022-11-10T18:26:14.649Z,2.15
2022-11-10T18:28:43.240Z,2.60
2022-11-10T18:31:13.223Z,1.75
2022-11-10T18:33:39.883Z,1.98
2022-11-10T18:36:06.941Z,1.80
2022-11-10T18:38:33.591Z,2.58
2022-11-10T18:41:25.337Z,1.90
2022-11-10T18:43:52.787Z,1.98
2022-11-10T18:46:19.429Z,2.30
2022-11-10T18:48:46.914Z,1.83
2022-11-10T18:51:14.775Z,1.90
2022-11-10T18:53:41.508Z,1.67
2022-11-10T18:56:08.695Z,1.92
2022-11-10T18:58:35.641Z,1.63
2022-11-10T19:01:07.036Z,1.73
2022-11-10T19:03:35.107Z,2.00
2022-11-10T19:06:05.370Z,1.85
2022-11-10T19:08:31.862Z,2.10
2022-11-10T19:11:00.863Z,1.77
2022-11-10T19:13:30.680Z,2.90
2022-11-10T19:16:00.556Z,1.98
2022-11-10T19:18:30.619Z,1.73
2022-11-10T19:20:57.310Z,1.98
2022-11-10T19:23:24.644Z,1.55
2022-11-10T19:26:02.369Z,1.70
2022-11-10T19:28:29.411Z,1.67
2022-11-10T19:31:23.187Z,2.40
2022-11-10T19:33:52.658Z,1.77
2022-11-10T19:36:22.238Z,2.03
2022-11-10T19:38:49.011Z,1.67
2022-11-10T19:41:19.845Z,2.17
2022-11-10T19:43:47.746Z,1.60
2022-11-10T19:48:43.778Z,1.92
2022-11-10T19:51:14.396Z,2.67
2022-11-10T19:53:42.579Z,1.92
2022-11-10T19:58:56.869Z,2.40
2022-11-10T20:01:23.878Z,2.00
2022-11-10T20:03:53.253Z,2.40
2022-11-10T20:06:22.597Z,2.35
2022-11-10T20:08:49.904Z,2.35
2022-11-10T20:11:23.785Z,3.23
2022-11-10T20:13:54.982Z,2.45
2022-11-10T20:16:24.442Z,2.55
2022-11-10T20:18:51.242Z,2.78
2022-11-10T20:21:22.491Z,2.72
2022-11-10T20:23:54.283Z,2.50
2022-11-10T20:26:25.601Z,2.92
2022-11-10T20:28:52.699Z,2.95
2022-11-10T20:31:23.754Z,2.72
2022-11-10T20:33:54.669Z,2.45
2022-11-10T20:36:32.288Z,2.35
2022-11-10T20:39:00.591Z,2.58
2022-11-10T20:41:29.485Z,2.65
2022-11-10T20:43:56.104Z,2.95
2022-11-10T20:46:53.624Z,2.33
2022-11-10T20:49:13.261Z,2.58
2022-11-10T20:51:40.728Z,2.75
2022-11-10T20:54:08.883Z,2.63
2022-11-10T20:59:04.357Z,2.58
2022-11-10T21:01:30.914Z,2.60
2022-11-10T21:03:57.541Z,2.63
2022-11-10T21:06:24.115Z,2.30
2022-11-10T21:08:51.259Z,2.70
2022-11-10T21:11:43.731Z,2.63
2022-11-10T21:14:10.368Z,3.53
2022-11-10T21:16:37.348Z,2.35
2022-11-10T21:19:04.183Z,2.70
2022-11-10T21:21:37.150Z,2.92
2022-11-10T21:24:05.756Z,2.80
2022-11-10T21:26:34.288Z,3.03
2022-11-10T21:29:03.359Z,2.65
2022-11-10T21:31:32.612Z,3.33
2022-11-10T21:34:01.607Z,2.72
2022-11-10T21:36:29.887Z,3.28
2022-11-10T21:39:00.369Z,3.35
2022-11-10T21:41:27.559Z,2.72
2022-11-10T21:43:54.094Z,3.53
2022-11-10T21:46:21.115Z,3.40
2022-11-10T21:48:51.992Z,3.22
2022-11-10T21:51:19.887Z,3.38
2022-11-10T21:53:47.380Z,3.30
2022-11-10T21:56:14.029Z,3.13
2022-11-10T21:58:40.931Z,3.58
2022-11-10T22:01:11.299Z,3.40
2022-11-10T22:03:38.005Z,3.67
2022-11-10T22:06:10.282Z,3.15
2022-11-10T22:08:38.058Z,4.28
2022-11-10T22:11:24.120Z,4.07
2022-11-10T22:14:09.682Z,3.85
2022-11-10T22:17:04.337Z,3.72
2022-11-10T22:19:32.106Z,3.72
2022-11-10T22:22:03.465Z,3.92
2022-11-10T22:24:33.779Z,4.57
2022-11-10T22:27:03.085Z,3.90
2022-11-10T22:29:32.481Z,3.80
2022-11-10T22:32:00.615Z,4.07
2022-11-10T22:34:27.414Z,4.35
2022-11-10T22:36:59.480Z,3.78
2022-11-10T22:39:49.313Z,4.50
2022-11-10T22:42:34.939Z,4.35
2022-11-10T22:45:03.673Z,3.95
2022-11-10T22:47:50.200Z,4.10
2022-11-10T22:50:16.753Z,4.30
2022-11-10T22:52:43.609Z,4.22
2022-11-10T22:55:10.858Z,4.97
2022-11-10T22:57:37.817Z,4.55
2022-11-10T23:00:05.315Z,4.53
2022-11-10T23:02:31.835Z,4.47
2022-11-10T23:04:58.425Z,4.50
2022-11-10T23:07:25.692Z,4.70
2022-11-10T23:09:53.064Z,4.87
2022-11-10T23:12:22.277Z,4.80
2022-11-10T23:14:51.595Z,4.80
2022-11-10T23:17:19.117Z,4.07
2022-11-10T23:19:45.610Z,4.45
2022-11-10T23:22:14.871Z,4.15
2022-11-10T23:24:41.812Z,4.38
2022-11-10T23:27:08.427Z,4.82
2022-11-10T23:29:35.017Z,4.95
2022-11-10T23:32:01.950Z,4.90
2022-11-10T23:34:28.458Z,5.15
2022-11-10T23:36:55.039Z,4.57
2022-11-10T23:39:24.347Z,4.90
2022-11-10T23:41:51.135Z,4.95
2022-11-10T23:44:18.483Z,4.95
2022-11-10T23:46:47.785Z,5.40
2022-11-10T23:49:14.346Z,4.10
2022-11-10T23:51:45.661Z,5.10
2022-11-10T23:54:12.496Z,5.07
2022-11-10T23:56:39.003Z,4.88
2022-11-10T23:59:06.393Z,4.70
